Country
Station

 

Weather  for  Johan A. Pengel  -  Suriname    Suriname

  
26 °C (79 °F)
    
 
 

Current METAR for Johan A. Pengel is :

SMJP 192200Z 02006KT 9999 FEW012 SCT025 26/24 Q1010 NOSIG

 

This is a report for Johan A. Pengel - Suriname.
 
The report was made 2 hours and 54 minutes ago, at 22:00 UTC .
The wind was blowing at a speed of 3.1 meters per second (6.9 miles per hour) from north/northeast (020°).
 
The temperature was 26 °C (79 °F), with a dew-point at 24 °C (75 °F).
The temperature felt like 28 °C (83 °F).
 
The atmospheric pressure was 1010 hPa (29.83 inHg).
The relative humidity was 88.8%.
 
There were a few clouds at a height of 366 meters (1200 feet) and scattered clouds at a height of 762 meters (2500 feet).
 
The overall visibility was greater than 10 kilometers (6.2 miles).
 

 
 
 
 

Country :   A   B   C   D   E   F   G   H   I   J   K   L   M   N   O   P   Q   R   S   T   U   V   W   Y   Z

 

Site Info  |  Disclaimer  |  Credits  |  Privacy
Contact us  |  Add to favorites
© 2013-2019 METARs - All rights reserved